sensor_id;sensor_type;location;lat;lon;timestamp;pressure;altitude;pressure_sealevel;temperature;humidity
59391;BME280;53405;57.012;40.984;2024-01-30T00:02:20;100650.41;;;-0.86;93.54
59391;BME280;53405;57.012;40.984;2024-01-30T00:04:47;100639.97;;;-0.85;93.56
59391;BME280;53405;57.012;40.984;2024-01-30T00:07:16;100665.00;;;-0.55;93.11
59391;BME280;53405;57.012;40.984;2024-01-30T00:09:46;100631.88;;;-0.79;92.35
59391;BME280;53405;57.012;40.984;2024-01-30T00:12:15;100657.47;;;-0.74;92.10
59391;BME280;53405;57.012;40.984;2024-01-30T00:14:42;100646.81;;;-0.69;93.00
59391;BME280;53405;57.012;40.984;2024-01-30T00:17:13;100624.31;;;-0.53;92.47
59391;BME280;53405;57.012;40.984;2024-01-30T00:19:41;100659.66;;;-0.38;91.99
59391;BME280;53405;57.012;40.984;2024-01-30T00:22:09;100664.81;;;-0.52;92.53
59391;BME280;53405;57.012;40.984;2024-01-30T00:24:36;100632.50;;;-0.75;92.24
59391;BME280;53405;57.012;40.984;2024-01-30T00:27:04;100660.66;;;-0.40;92.67
59391;BME280;53405;57.012;40.984;2024-01-30T00:29:31;100657.78;;;-0.50;92.20
59391;BME280;53405;57.012;40.984;2024-01-30T00:32:01;100620.81;;;-0.38;91.91
59391;BME280;53405;57.012;40.984;2024-01-30T00:34:28;100644.22;;;-0.25;91.46
59391;BME280;53405;57.012;40.984;2024-01-30T00:36:56;100610.94;;;-0.31;91.45
59391;BME280;53405;57.012;40.984;2024-01-30T00:39:24;100641.63;;;-0.53;92.43
59391;BME280;53405;57.012;40.984;2024-01-30T00:41:51;100649.94;;;-0.48;92.51
59391;BME280;53405;57.012;40.984;2024-01-30T00:44:19;100648.06;;;-0.46;93.58
59391;BME280;53405;57.012;40.984;2024-01-30T00:46:46;100646.13;;;-0.43;92.03
59391;BME280;53405;57.012;40.984;2024-01-30T00:49:14;100631.47;;;-0.28;92.25
59391;BME280;53405;57.012;40.984;2024-01-30T00:51:42;100622.66;;;-0.54;92.12
59391;BME280;53405;57.012;40.984;2024-01-30T00:54:10;100611.47;;;-0.55;92.32
59391;BME280;53405;57.012;40.984;2024-01-30T00:56:38;100631.00;;;-0.34;92.81
59391;BME280;53405;57.012;40.984;2024-01-30T00:59:06;100644.59;;;-0.31;92.96
59391;BME280;53405;57.012;40.984;2024-01-30T01:01:33;100636.91;;;-0.18;92.63
59391;BME280;53405;57.012;40.984;2024-01-30T01:04:01;100643.63;;;0.13;90.77
59391;BME280;53405;57.012;40.984;2024-01-30T01:06:29;100651.94;;;0.18;90.16
59391;BME280;53405;57.012;40.984;2024-01-30T01:08:57;100650.31;;;0.17;90.92
59391;BME280;53405;57.012;40.984;2024-01-30T01:11:28;100657.88;;;0.21;90.85
59391;BME280;53405;57.012;40.984;2024-01-30T01:13:56;100610.50;;;0.18;89.57
59391;BME280;53405;57.012;40.984;2024-01-30T01:16:25;100645.53;;;-0.03;90.09
59391;BME280;53405;57.012;40.984;2024-01-30T01:18:52;100644.09;;;0.06;91.05
59391;BME280;53405;57.012;40.984;2024-01-30T01:21:20;100631.25;;;0.04;90.70
59391;BME280;53405;57.012;40.984;2024-01-30T01:23:47;100644.56;;;0.12;90.72
59391;BME280;53405;57.012;40.984;2024-01-30T01:26:15;100635.88;;;0.13;90.70
59391;BME280;53405;57.012;40.984;2024-01-30T01:28:42;100640.84;;;0.16;90.69
59391;BME280;53405;57.012;40.984;2024-01-30T01:31:10;100644.53;;;0.41;88.91
59391;BME280;53405;57.012;40.984;2024-01-30T01:33:37;100638.38;;;0.01;91.29
59391;BME280;53405;57.012;40.984;2024-01-30T01:36:05;100634.13;;;-0.01;91.16
59391;BME280;53405;57.012;40.984;2024-01-30T01:38:34;100641.78;;;0.01;90.79
59391;BME280;53405;57.012;40.984;2024-01-30T01:41:01;100635.59;;;0.04;92.12
59391;BME280;53405;57.012;40.984;2024-01-30T01:43:29;100634.16;;;0.27;91.21
59391;BME280;53405;57.012;40.984;2024-01-30T01:45:57;100626.22;;;0.15;91.14
59391;BME280;53405;57.012;40.984;2024-01-30T01:48:26;100631.84;;;0.64;89.20
59391;BME280;53405;57.012;40.984;2024-01-30T01:50:54;100642.75;;;0.42;90.12
59391;BME280;53405;57.012;40.984;2024-01-30T01:53:21;100631.47;;;0.28;90.05
59391;BME280;53405;57.012;40.984;2024-01-30T01:55:49;100628.88;;;0.70;89.03
59391;BME280;53405;57.012;40.984;2024-01-30T01:58:18;100631.31;;;0.59;88.39
59391;BME280;53405;57.012;40.984;2024-01-30T02:00:47;100627.25;;;0.54;89.24
59391;BME280;53405;57.012;40.984;2024-01-30T02:03:18;100636.19;;;0.36;89.49
59391;BME280;53405;57.012;40.984;2024-01-30T02:05:50;100625.72;;;0.38;91.06
59391;BME280;53405;57.012;40.984;2024-01-30T02:08:18;100639.63;;;0.64;89.17
59391;BME280;53405;57.012;40.984;2024-01-30T02:10:46;100634.53;;;0.89;87.63
59391;BME280;53405;57.012;40.984;2024-01-30T02:13:13;100630.09;;;0.64;88.65
59391;BME280;53405;57.012;40.984;2024-01-30T02:15:41;100637.44;;;0.58;89.62
59391;BME280;53405;57.012;40.984;2024-01-30T02:18:10;100637.88;;;0.92;87.56
59391;BME280;53405;57.012;40.984;2024-01-30T02:20:58;100631.56;;;0.68;88.61
59391;BME280;53405;57.012;40.984;2024-01-30T02:23:30;100634.94;;;0.56;89.57
59391;BME280;53405;57.012;40.984;2024-01-30T02:26:00;100625.44;;;0.42;89.49
59391;BME280;53405;57.012;40.984;2024-01-30T02:28:28;100619.56;;;0.53;89.72
59391;BME280;53405;57.012;40.984;2024-01-30T02:30:55;100585.91;;;0.66;88.58
59391;BME280;53405;57.012;40.984;2024-01-30T02:33:23;100627.41;;;0.93;87.56
59391;BME280;53405;57.012;40.984;2024-01-30T02:35:51;100632.22;;;0.85;86.86
59391;BME280;53405;57.012;40.984;2024-01-30T02:38:18;100618.47;;;0.57;89.01
59391;BME280;53405;57.012;40.984;2024-01-30T02:40:46;100615.81;;;0.71;88.91
59391;BME280;53405;57.012;40.984;2024-01-30T02:43:14;100616.88;;;0.54;88.82
59391;BME280;53405;57.012;40.984;2024-01-30T02:45:42;100624.38;;;0.32;90.67
59391;BME280;53405;57.012;40.984;2024-01-30T02:48:10;100621.69;;;0.61;90.60
59391;BME280;53405;57.012;40.984;2024-01-30T02:50:38;100616.63;;;0.72;88.57
59391;BME280;53405;57.012;40.984;2024-01-30T02:53:05;100625.03;;;1.03;87.53
59391;BME280;53405;57.012;40.984;2024-01-30T02:55:33;100596.88;;;0.84;86.84
59391;BME280;53405;57.012;40.984;2024-01-30T02:58:00;100618.97;;;0.89;87.70
59391;BME280;53405;57.012;40.984;2024-01-30T03:00:28;100612.69;;;1.19;86.76
59391;BME280;53405;57.012;40.984;2024-01-30T03:02:56;100617.56;;;1.11;86.54
59391;BME280;53405;57.012;40.984;2024-01-30T03:05:24;100619.75;;;1.04;87.25
59391;BME280;53405;57.012;40.984;2024-01-30T03:07:52;100621.06;;;1.10;86.74
59391;BME280;53405;57.012;40.984;2024-01-30T03:10:20;100604.75;;;0.82;86.73
59391;BME280;53405;57.012;40.984;2024-01-30T03:12:48;100642.06;;;1.20;86.63
59391;BME280;53405;57.012;40.984;2024-01-30T03:15:16;100623.91;;;0.80;87.43
59391;BME280;53405;57.012;40.984;2024-01-30T03:17:43;100646.97;;;0.84;87.75
59391;BME280;53405;57.012;40.984;2024-01-30T03:20:11;100649.41;;;0.73;88.87
59391;BME280;53405;57.012;40.984;2024-01-30T03:22:38;100635.50;;;1.01;87.81
59391;BME280;53405;57.012;40.984;2024-01-30T03:25:07;100643.63;;;1.22;87.57
59391;BME280;53405;57.012;40.984;2024-01-30T03:27:34;100645.09;;;1.26;85.92
59391;BME280;53405;57.012;40.984;2024-01-30T03:30:02;100643.94;;;1.31;86.23
59391;BME280;53405;57.012;40.984;2024-01-30T03:32:30;100629.53;;;1.39;86.14
59391;BME280;53405;57.012;40.984;2024-01-30T03:34:58;100603.09;;;0.94;86.38
59391;BME280;53405;57.012;40.984;2024-01-30T03:37:27;100639.31;;;0.96;87.47
59391;BME280;53405;57.012;40.984;2024-01-30T03:39:54;100618.09;;;1.29;86.35
59391;BME280;53405;57.012;40.984;2024-01-30T03:42:22;100637.63;;;1.35;86.30
59391;BME280;53405;57.012;40.984;2024-01-30T03:44:50;100633.59;;;1.43;86.05
59391;BME280;53405;57.012;40.984;2024-01-30T03:47:21;100646.09;;;1.11;87.33
59391;BME280;53405;57.012;40.984;2024-01-30T03:49:49;100645.47;;;1.07;87.40
59391;BME280;53405;57.012;40.984;2024-01-30T03:52:17;100638.09;;;1.01;88.68
59391;BME280;53405;57.012;40.984;2024-01-30T03:54:50;100648.72;;;1.37;86.92
59391;BME280;53405;57.012;40.984;2024-01-30T03:57:18;100645.56;;;1.06;87.97
59391;BME280;53405;57.012;40.984;2024-01-30T03:59:46;100649.22;;;1.29;86.89
59391;BME280;53405;57.012;40.984;2024-01-30T04:02:13;100619.97;;;1.27;86.79
59391;BME280;53405;57.012;40.984;2024-01-30T04:04:41;100639.91;;;1.39;86.02
59391;BME280;53405;57.012;40.984;2024-01-30T04:07:09;100649.69;;;0.96;87.45
59391;BME280;53405;57.012;40.984;2024-01-30T04:09:38;100650.41;;;1.51;86.70
59391;BME280;53405;57.012;40.984;2024-01-30T04:12:06;100655.16;;;1.31;87.27
59391;BME280;53405;57.012;40.984;2024-01-30T04:14:34;100657.41;;;1.10;87.85
59391;BME280;53405;57.012;40.984;2024-01-30T04:17:03;100636.34;;;1.15;87.50
59391;BME280;53405;57.012;40.984;2024-01-30T04:19:31;100638.03;;;1.41;86.11
59391;BME280;53405;57.012;40.984;2024-01-30T04:21:58;100660.88;;;1.23;87.48
59391;BME280;53405;57.012;40.984;2024-01-30T04:24:26;100659.31;;;1.47;87.23
59391;BME280;53405;57.012;40.984;2024-01-30T04:26:53;100614.56;;;1.30;86.51
59391;BME280;53405;57.012;40.984;2024-01-30T04:29:21;100677.06;;;1.53;87.81
59391;BME280;53405;57.012;40.984;2024-01-30T04:31:50;100674.06;;;1.33;86.11
59391;BME280;53405;57.012;40.984;2024-01-30T04:34:18;100677.38;;;1.48;87.12
59391;BME280;53405;57.012;40.984;2024-01-30T04:36:45;100684.25;;;1.62;85.82
59391;BME280;53405;57.012;40.984;2024-01-30T04:39:14;100674.47;;;1.40;85.93
59391;BME280;53405;57.012;40.984;2024-01-30T04:41:42;100672.13;;;1.62;86.00
59391;BME280;53405;57.012;40.984;2024-01-30T04:44:09;100675.28;;;1.27;86.78
59391;BME280;53405;57.012;40.984;2024-01-30T04:46:37;100685.88;;;1.24;88.00
59391;BME280;53405;57.012;40.984;2024-01-30T04:49:30;100694.09;;;1.04;88.25
59391;BME280;53405;57.012;40.984;2024-01-30T04:51:58;100683.84;;;1.02;89.05
59391;BME280;53405;57.012;40.984;2024-01-30T04:54:26;100689.81;;;1.30;88.63
59391;BME280;53405;57.012;40.984;2024-01-30T04:56:53;100669.97;;;1.16;87.56
59391;BME280;53405;57.012;40.984;2024-01-30T04:59:21;100685.66;;;1.27;87.70
59391;BME280;53405;57.012;40.984;2024-01-30T05:01:48;100687.31;;;1.16;89.10
59391;BME280;53405;57.012;40.984;2024-01-30T05:04:16;100703.94;;;1.26;89.75
59391;BME280;53405;57.012;40.984;2024-01-30T05:06:44;100711.00;;;1.24;88.54
59391;BME280;53405;57.012;40.984;2024-01-30T05:09:12;100704.31;;;1.60;88.30
59391;BME280;53405;57.012;40.984;2024-01-30T05:11:41;100693.91;;;1.60;87.58
59391;BME280;53405;57.012;40.984;2024-01-30T05:14:08;100676.88;;;1.56;86.54
59391;BME280;53405;57.012;40.984;2024-01-30T05:16:36;100719.59;;;1.77;86.87
59391;BME280;53405;57.012;40.984;2024-01-30T05:19:04;100711.19;;;1.74;87.43
59391;BME280;53405;57.012;40.984;2024-01-30T05:21:32;100715.09;;;1.67;86.84
59391;BME280;53405;57.012;40.984;2024-01-30T05:24:00;100701.09;;;1.43;87.97
59391;BME280;53405;57.012;40.984;2024-01-30T05:26:27;100728.50;;;1.60;87.46
59391;BME280;53405;57.012;40.984;2024-01-30T05:28:56;100723.97;;;1.90;86.40
59391;BME280;53405;57.012;40.984;2024-01-30T05:31:24;100726.97;;;1.71;87.32
59391;BME280;53405;57.012;40.984;2024-01-30T05:33:54;100726.66;;;1.62;87.49
59391;BME280;53405;57.012;40.984;2024-01-30T05:36:22;100735.66;;;1.44;87.80
59391;BME280;53405;57.012;40.984;2024-01-30T05:38:49;100740.34;;;1.65;88.30
59391;BME280;53405;57.012;40.984;2024-01-30T05:41:17;100738.75;;;1.49;87.69
59391;BME280;53405;57.012;40.984;2024-01-30T05:43:45;100726.59;;;1.50;87.70
59391;BME280;53405;57.012;40.984;2024-01-30T05:46:13;100708.13;;;1.54;86.92
59391;BME280;53405;57.012;40.984;2024-01-30T05:48:40;100755.84;;;1.79;87.35
59391;BME280;53405;57.012;40.984;2024-01-30T05:51:08;100754.47;;;1.73;87.04
59391;BME280;53405;57.012;40.984;2024-01-30T05:53:36;100759.13;;;1.55;89.59
59391;BME280;53405;57.012;40.984;2024-01-30T05:56:04;100748.03;;;1.66;89.28
59391;BME280;53405;57.012;40.984;2024-01-30T05:58:32;100761.44;;;1.86;87.59
59391;BME280;53405;57.012;40.984;2024-01-30T06:01:00;100732.34;;;2.06;86.51
59391;BME280;53405;57.012;40.984;2024-01-30T06:03:27;100765.63;;;1.75;87.00
59391;BME280;53405;57.012;40.984;2024-01-30T06:05:55;100766.44;;;2.02;85.62
59391;BME280;53405;57.012;40.984;2024-01-30T06:08:23;100777.38;;;2.07;86.28
59391;BME280;53405;57.012;40.984;2024-01-30T06:10:50;100778.72;;;2.12;86.13
59391;BME280;53405;57.012;40.984;2024-01-30T06:13:18;100762.81;;;1.78;86.96
59391;BME280;53405;57.012;40.984;2024-01-30T06:15:46;100778.72;;;1.99;87.03
59391;BME280;53405;57.012;40.984;2024-01-30T06:18:13;100782.16;;;2.13;86.40
59391;BME280;53405;57.012;40.984;2024-01-30T06:20:41;100781.31;;;1.87;87.48
59391;BME280;53405;57.012;40.984;2024-01-30T06:23:09;100758.13;;;1.96;86.21
59391;BME280;53405;57.012;40.984;2024-01-30T06:25:36;100763.75;;;1.77;86.96
59391;BME280;53405;57.012;40.984;2024-01-30T06:28:05;100775.69;;;1.80;88.35
59391;BME280;53405;57.012;40.984;2024-01-30T06:30:33;100776.63;;;2.05;86.56
59391;BME280;53405;57.012;40.984;2024-01-30T06:33:02;100776.44;;;2.08;86.68
59391;BME280;53405;57.012;40.984;2024-01-30T06:35:30;100776.97;;;2.13;86.74
59391;BME280;53405;57.012;40.984;2024-01-30T06:37:58;100781.53;;;2.22;86.10
59391;BME280;53405;57.012;40.984;2024-01-30T06:40:26;100766.25;;;2.05;85.65
59391;BME280;53405;57.012;40.984;2024-01-30T06:42:53;100757.94;;;1.87;87.28
59391;BME280;53405;57.012;40.984;2024-01-30T06:45:21;100797.84;;;2.37;85.48
59391;BME280;53405;57.012;40.984;2024-01-30T06:47:48;100786.00;;;1.94;87.73
59391;BME280;53405;57.012;40.984;2024-01-30T06:50:16;100802.00;;;2.27;86.57
59391;BME280;53405;57.012;40.984;2024-01-30T06:52:44;100805.44;;;2.27;85.26
59391;BME280;53405;57.012;40.984;2024-01-30T06:55:11;100805.66;;;2.11;85.89
59391;BME280;53405;57.012;40.984;2024-01-30T06:57:39;100799.19;;;2.30;86.39
59391;BME280;53405;57.012;40.984;2024-01-30T07:00:07;100785.38;;;2.16;86.20
59391;BME280;53405;57.012;40.984;2024-01-30T07:02:35;100789.63;;;2.05;86.00
59391;BME280;53405;57.012;40.984;2024-01-30T07:05:04;100793.38;;;2.01;87.45
59391;BME280;53405;57.012;40.984;2024-01-30T07:07:31;100778.19;;;1.94;87.28
59391;BME280;53405;57.012;40.984;2024-01-30T07:10:00;100825.59;;;2.11;86.25
59391;BME280;53405;57.012;40.984;2024-01-30T07:12:31;100779.75;;;1.97;86.56
59391;BME280;53405;57.012;40.984;2024-01-30T07:14:58;100809.59;;;2.17;86.94
59391;BME280;53405;57.012;40.984;2024-01-30T07:17:29;100826.13;;;2.16;87.35
59391;BME280;53405;57.012;40.984;2024-01-30T07:19:57;100829.97;;;2.36;87.29
59391;BME280;53405;57.012;40.984;2024-01-30T07:22:24;100828.50;;;2.19;86.32
59391;BME280;53405;57.012;40.984;2024-01-30T07:24:52;100840.38;;;2.23;87.71
59391;BME280;53405;57.012;40.984;2024-01-30T07:27:20;100847.44;;;2.47;86.67
59391;BME280;53405;57.012;40.984;2024-01-30T07:29:49;100835.59;;;2.43;85.80
59391;BME280;53405;57.012;40.984;2024-01-30T07:32:16;100836.31;;;2.58;83.82
59391;BME280;53405;57.012;40.984;2024-01-30T07:34:44;100845.88;;;2.31;85.53
59391;BME280;53405;57.012;40.984;2024-01-30T07:37:30;100841.75;;;2.42;85.43
59391;BME280;53405;57.012;40.984;2024-01-30T07:39:58;100853.69;;;2.31;87.02
59391;BME280;53405;57.012;40.984;2024-01-30T07:42:26;100852.97;;;2.42;85.37
59391;BME280;53405;57.012;40.984;2024-01-30T07:44:54;100832.78;;;2.59;86.05
59391;BME280;53405;57.012;40.984;2024-01-30T07:47:22;100813.84;;;2.57;84.49
59391;BME280;53405;57.012;40.984;2024-01-30T07:49:51;100862.03;;;2.49;85.53
59391;BME280;53405;57.012;40.984;2024-01-30T07:52:19;100858.16;;;2.81;84.44
59391;BME280;53405;57.012;40.984;2024-01-30T07:55:12;100849.63;;;2.53;84.09
59391;BME280;53405;57.012;40.984;2024-01-30T07:58:14;100833.41;;;2.62;85.29
59391;BME280;53405;57.012;40.984;2024-01-30T08:00:42;100841.31;;;2.61;84.61
59391;BME280;53405;57.012;40.984;2024-01-30T08:03:12;100838.53;;;3.01;82.94
59391;BME280;53405;57.012;40.984;2024-01-30T08:05:40;100828.75;;;2.92;83.53
59391;BME280;53405;57.012;40.984;2024-01-30T08:08:08;100833.63;;;2.96;82.73
59391;BME280;53405;57.012;40.984;2024-01-30T08:10:36;100809.03;;;2.76;82.43
59391;BME280;53405;57.012;40.984;2024-01-30T08:13:04;100826.94;;;2.81;82.30
59391;BME280;53405;57.012;40.984;2024-01-30T08:15:31;100828.34;;;2.85;83.11
59391;BME280;53405;57.012;40.984;2024-01-30T08:17:59;100842.00;;;2.76;83.50
59391;BME280;53405;57.012;40.984;2024-01-30T08:20:27;100846.59;;;2.72;84.26
59391;BME280;53405;57.012;40.984;2024-01-30T08:22:55;100845.97;;;2.81;83.90
59391;BME280;53405;57.012;40.984;2024-01-30T08:25:23;100857.91;;;2.97;82.95
59391;BME280;53405;57.012;40.984;2024-01-30T08:27:51;100852.22;;;2.66;83.06
59391;BME280;53405;57.012;40.984;2024-01-30T08:30:19;100837.13;;;2.58;83.70
59391;BME280;53405;57.012;40.984;2024-01-30T08:32:47;100863.34;;;2.55;83.96
59391;BME280;53405;57.012;40.984;2024-01-30T08:35:14;100848.78;;;2.78;82.20
59391;BME280;53405;57.012;40.984;2024-01-30T08:37:44;100876.44;;;2.66;83.48
59391;BME280;53405;57.012;40.984;2024-01-30T08:40:12;100875.31;;;2.58;84.37
59391;BME280;53405;57.012;40.984;2024-01-30T08:42:39;100867.19;;;2.75;83.28
59391;BME280;53405;57.012;40.984;2024-01-30T08:45:08;100852.84;;;2.69;84.52
59391;BME280;53405;57.012;40.984;2024-01-30T08:47:37;100848.22;;;2.99;82.85
59391;BME280;53405;57.012;40.984;2024-01-30T08:50:05;100851.63;;;2.99;81.92
59391;BME280;53405;57.012;40.984;2024-01-30T08:52:33;100854.72;;;3.17;80.97
59391;BME280;53405;57.012;40.984;2024-01-30T08:55:01;100870.19;;;3.32;80.16
59391;BME280;53405;57.012;40.984;2024-01-30T08:57:31;100848.94;;;3.01;80.08
59391;BME280;53405;57.012;40.984;2024-01-30T08:59:58;100857.66;;;3.13;79.48
59391;BME280;53405;57.012;40.984;2024-01-30T09:02:26;100845.03;;;2.82;79.93
59391;BME280;53405;57.012;40.984;2024-01-30T09:04:54;100859.50;;;2.74;81.33
59391;BME280;53405;57.012;40.984;2024-01-30T09:07:22;100850.03;;;2.85;80.70
59391;BME280;53405;57.012;40.984;2024-01-30T09:09:52;100865.13;;;2.67;82.29
59391;BME280;53405;57.012;40.984;2024-01-30T09:12:33;100871.81;;;3.08;81.31
59391;BME280;53405;57.012;40.984;2024-01-30T09:15:01;100872.25;;;3.02;81.65
59391;BME280;53405;57.012;40.984;2024-01-30T09:17:30;100855.84;;;2.89;82.00
59391;BME280;53405;57.012;40.984;2024-01-30T09:19:58;100861.03;;;3.26;79.04
59391;BME280;53405;57.012;40.984;2024-01-30T09:22:26;100869.22;;;3.08;78.41
59391;BME280;53405;57.012;40.984;2024-01-30T09:24:53;100865.22;;;2.79;80.50
59391;BME280;53405;57.012;40.984;2024-01-30T09:27:21;100875.16;;;2.98;81.04
59391;BME280;53405;57.012;40.984;2024-01-30T09:29:49;100851.56;;;2.88;81.25
59391;BME280;53405;57.012;40.984;2024-01-30T09:32:17;100877.22;;;3.05;81.16
59391;BME280;53405;57.012;40.984;2024-01-30T09:34:45;100846.69;;;2.83;80.91
59391;BME280;53405;57.012;40.984;2024-01-30T09:37:13;100869.31;;;3.44;77.79
59391;BME280;53405;57.012;40.984;2024-01-30T09:39:42;100869.31;;;3.07;79.60
59391;BME280;53405;57.012;40.984;2024-01-30T09:44:47;100863.91;;;3.47;77.89
59391;BME280;53405;57.012;40.984;2024-01-30T09:47:18;100876.38;;;3.18;78.34
59391;BME280;53405;57.012;40.984;2024-01-30T09:49:46;100874.53;;;3.07;80.70
59391;BME280;53405;57.012;40.984;2024-01-30T09:52:15;100873.50;;;3.10;79.06
59391;BME280;53405;57.012;40.984;2024-01-30T09:54:43;100872.78;;;3.07;79.67
59391;BME280;53405;57.012;40.984;2024-01-30T09:57:12;100880.75;;;3.17;78.53
59391;BME280;53405;57.012;40.984;2024-01-30T09:59:42;100878.41;;;3.01;79.67
59391;BME280;53405;57.012;40.984;2024-01-30T10:02:10;100849.25;;;2.96;78.16
59391;BME280;53405;57.012;40.984;2024-01-30T10:04:38;100872.47;;;2.99;78.92
59391;BME280;53405;57.012;40.984;2024-01-30T10:07:07;100898.44;;;3.12;79.86
59391;BME280;53405;57.012;40.984;2024-01-30T10:09:37;100894.91;;;3.13;79.97
59391;BME280;53405;57.012;40.984;2024-01-30T10:12:05;100876.19;;;3.08;79.25
59391;BME280;53405;57.012;40.984;2024-01-30T10:14:33;100883.94;;;3.34;78.76
59391;BME280;53405;57.012;40.984;2024-01-30T10:17:01;100883.75;;;3.24;78.83
59391;BME280;53405;57.012;40.984;2024-01-30T10:19:39;100890.59;;;3.38;78.03
59391;BME280;53405;57.012;40.984;2024-01-30T10:22:07;100894.84;;;3.39;78.63
59391;BME280;53405;57.012;40.984;2024-01-30T10:24:35;100897.50;;;3.26;77.91
59391;BME280;53405;57.012;40.984;2024-01-30T10:27:05;100901.16;;;3.23;77.73
59391;BME280;53405;57.012;40.984;2024-01-30T10:29:33;100895.16;;;3.47;76.73
59391;BME280;53405;57.012;40.984;2024-01-30T10:32:01;100887.16;;;3.61;76.66
59391;BME280;53405;57.012;40.984;2024-01-30T10:34:30;100898.41;;;3.38;76.88
59391;BME280;53405;57.012;40.984;2024-01-30T10:37:09;100898.56;;;3.48;75.23
59391;BME280;53405;57.012;40.984;2024-01-30T10:39:44;100893.16;;;3.01;76.69
59391;BME280;53405;57.012;40.984;2024-01-30T10:42:13;100902.41;;;3.18;76.48
59391;BME280;53405;57.012;40.984;2024-01-30T10:45:06;100906.81;;;2.92;78.82
59391;BME280;53405;57.012;40.984;2024-01-30T10:47:37;100896.41;;;3.04;78.13
59391;BME280;53405;57.012;40.984;2024-01-30T10:50:07;100901.16;;;3.23;76.44
59391;BME280;53405;57.012;40.984;2024-01-30T10:52:35;100903.69;;;2.99;78.60
59391;BME280;53405;57.012;40.984;2024-01-30T10:55:04;100915.31;;;3.19;76.55
59391;BME280;53405;57.012;40.984;2024-01-30T10:57:36;100888.63;;;2.79;77.03
59391;BME280;53405;57.012;40.984;2024-01-30T11:00:09;100913.41;;;2.71;78.31
59391;BME280;53405;57.012;40.984;2024-01-30T11:02:43;100909.34;;;2.67;78.07
59391;BME280;53405;57.012;40.984;2024-01-30T11:05:13;100920.47;;;2.82;77.57
59391;BME280;53405;57.012;40.984;2024-01-30T11:07:43;100913.66;;;3.18;76.35
59391;BME280;53405;57.012;40.984;2024-01-30T11:10:12;100912.97;;;2.91;77.17
59391;BME280;53405;57.012;40.984;2024-01-30T11:12:43;100910.81;;;2.71;78.35
59391;BME280;53405;57.012;40.984;2024-01-30T11:15:16;100858.03;;;2.69;77.58
59391;BME280;53405;57.012;40.984;2024-01-30T11:17:51;100913.59;;;2.81;78.46
59391;BME280;53405;57.012;40.984;2024-01-30T11:20:22;100912.34;;;2.61;80.28
59391;BME280;53405;57.012;40.984;2024-01-30T11:22:52;100917.34;;;2.64;80.53
59391;BME280;53405;57.012;40.984;2024-01-30T11:25:21;100933.38;;;2.84;80.01
59391;BME280;53405;57.012;40.984;2024-01-30T11:27:52;100936.81;;;2.71;80.77
59391;BME280;53405;57.012;40.984;2024-01-30T11:30:28;100927.22;;;2.85;80.01
59391;BME280;53405;57.012;40.984;2024-01-30T11:33:07;100941.75;;;3.26;79.77
59391;BME280;53405;57.012;40.984;2024-01-30T11:35:45;100936.16;;;3.19;78.13
59391;BME280;53405;57.012;40.984;2024-01-30T11:38:14;100939.56;;;3.20;77.46
59391;BME280;53405;57.012;40.984;2024-01-30T11:40:43;100946.41;;;3.34;77.33
59391;BME280;53405;57.012;40.984;2024-01-30T11:43:11;100958.03;;;3.54;76.26
59391;BME280;53405;57.012;40.984;2024-01-30T11:45:39;100951.44;;;3.24;76.89
59391;BME280;53405;57.012;40.984;2024-01-30T11:48:08;100953.91;;;3.38;76.17
59391;BME280;53405;57.012;40.984;2024-01-30T11:50:39;100958.84;;;3.30;75.81
59391;BME280;53405;57.012;40.984;2024-01-30T11:53:08;100963.22;;;3.04;77.71
59391;BME280;53405;57.012;40.984;2024-01-30T11:55:36;100923.50;;;2.89;77.09
59391;BME280;53405;57.012;40.984;2024-01-30T11:58:05;100965.22;;;3.00;77.93
59391;BME280;53405;57.012;40.984;2024-01-30T12:00:33;100916.19;;;2.94;77.16
59391;BME280;53405;57.012;40.984;2024-01-30T12:03:02;100945.84;;;2.79;79.14
59391;BME280;53405;57.012;40.984;2024-01-30T12:05:32;100957.09;;;2.79;78.61
59391;BME280;53405;57.012;40.984;2024-01-30T12:08:00;100955.13;;;2.96;78.19
59391;BME280;53405;57.012;40.984;2024-01-30T12:10:29;100932.63;;;2.56;79.71
59391;BME280;53405;57.012;40.984;2024-01-30T12:12:58;100979.25;;;2.72;79.93
59391;BME280;53405;57.012;40.984;2024-01-30T12:15:26;100944.47;;;2.34;79.41
59391;BME280;53405;57.012;40.984;2024-01-30T12:18:04;100943.97;;;2.55;79.27
59391;BME280;53405;57.012;40.984;2024-01-30T12:20:32;100938.06;;;2.66;78.86
59391;BME280;53405;57.012;40.984;2024-01-30T12:23:00;100977.16;;;2.77;79.20
59391;BME280;53405;57.012;40.984;2024-01-30T12:25:28;100984.88;;;2.66;79.73
59391;BME280;53405;57.012;40.984;2024-01-30T12:27:55;100987.44;;;2.53;80.94
59391;BME280;53405;57.012;40.984;2024-01-30T12:30:23;100988.94;;;2.83;79.88
59391;BME280;53405;57.012;40.984;2024-01-30T12:32:51;100973.19;;;2.46;79.43
59391;BME280;53405;57.012;40.984;2024-01-30T12:35:20;100948.63;;;2.37;81.24
59391;BME280;53405;57.012;40.984;2024-01-30T12:37:49;100965.22;;;2.22;80.95
59391;BME280;53405;57.012;40.984;2024-01-30T12:40:17;100988.66;;;2.34;80.79
59391;BME280;53405;57.012;40.984;2024-01-30T12:42:47;100930.59;;;2.08;79.82
59391;BME280;53405;57.012;40.984;2024-01-30T12:45:17;100996.22;;;2.25;81.46
59391;BME280;53405;57.012;40.984;2024-01-30T12:47:50;100995.13;;;2.42;81.03
59391;BME280;53405;57.012;40.984;2024-01-30T12:50:19;100999.66;;;2.25;80.78
59391;BME280;53405;57.012;40.984;2024-01-30T12:52:47;100982.19;;;2.14;81.15
59391;BME280;53405;57.012;40.984;2024-01-30T12:55:17;101011.13;;;2.35;82.34
59391;BME280;53405;57.012;40.984;2024-01-30T12:57:46;100995.56;;;2.48;80.51
59391;BME280;53405;57.012;40.984;2024-01-30T13:00:14;101004.22;;;2.22;81.69
59391;BME280;53405;57.012;40.984;2024-01-30T13:02:45;101001.09;;;2.16;82.43